createdAt,value
2022-10-02T00:00:07.442Z,1016.37
2022-10-02T00:00:38.428Z,1016.38
2022-10-02T00:01:09.470Z,1016.40
2022-10-02T00:01:40.039Z,1016.42
2022-10-02T00:02:10.724Z,1016.41
2022-10-02T00:02:41.226Z,1016.43
2022-10-02T00:03:12.118Z,1016.44
2022-10-02T00:03:43.041Z,1016.43
2022-10-02T00:04:14.056Z,1016.46
2022-10-02T00:04:44.590Z,1016.47
2022-10-02T00:05:15.711Z,1016.49
2022-10-02T00:05:46.216Z,1016.52
2022-10-02T00:06:17.148Z,1016.49
2022-10-02T00:06:48.068Z,1016.49
2022-10-02T00:07:19.101Z,1016.47
2022-10-02T00:07:49.543Z,1016.45
2022-10-02T00:08:24.053Z,1016.43
2022-10-02T00:08:51.413Z,1016.44
2022-10-02T00:09:22.354Z,1016.43
2022-10-02T00:09:53.455Z,1016.43
2022-10-02T00:10:23.952Z,1016.41
2022-10-02T00:10:54.456Z,1016.43
2022-10-02T00:11:25.567Z,1016.41
2022-10-02T00:11:56.055Z,1016.41
2022-10-02T00:12:26.953Z,1016.43
2022-10-02T00:12:57.921Z,1016.49
2022-10-02T00:13:28.851Z,1016.52
2022-10-02T00:13:59.868Z,1016.49
2022-10-02T00:14:30.494Z,1016.50
2022-10-02T00:15:00.979Z,1016.50
2022-10-02T00:15:31.954Z,1016.51
2022-10-02T00:16:02.895Z,1016.52
2022-10-02T00:16:34.422Z,1016.54
2022-10-02T00:17:04.757Z,1016.57
2022-10-02T00:17:35.947Z,1016.62
2022-10-02T00:18:06.445Z,1016.63
2022-10-02T00:18:37.374Z,1016.64
2022-10-02T00:19:08.279Z,1016.63
2022-10-02T00:19:39.266Z,1016.64
2022-10-02T00:20:09.762Z,1016.67
2022-10-02T00:20:40.457Z,1016.68
2022-10-02T00:21:10.942Z,1016.70
2022-10-02T00:21:41.841Z,1016.71
2022-10-02T00:22:12.844Z,1016.72
2022-10-02T00:22:43.773Z,1016.70
2022-10-02T00:23:14.674Z,1016.69
2022-10-02T00:23:45.869Z,1016.70
2022-10-02T00:24:16.369Z,1016.72
2022-10-02T00:24:47.292Z,1016.74
2022-10-02T00:25:18.253Z,1016.78
2022-10-02T00:25:49.252Z,1016.80
2022-10-02T00:26:20.175Z,1016.82
2022-10-02T00:26:51.284Z,1016.84
2022-10-02T00:27:21.769Z,1016.89
2022-10-02T00:27:52.729Z,1016.90
2022-10-02T00:28:23.461Z,1016.87
2022-10-02T00:28:53.997Z,1016.86
2022-10-02T00:29:24.920Z,1016.85
2022-10-02T00:29:56.039Z,1016.82
2022-10-02T00:30:26.530Z,1016.82
2022-10-02T00:30:57.517Z,1016.82
2022-10-02T00:31:28.493Z,1016.82
2022-10-02T00:31:59.037Z,1016.83
2022-10-02T00:32:29.598Z,1016.82
2022-10-02T00:33:00.761Z,1016.87
2022-10-02T00:33:31.256Z,1016.87
2022-10-02T00:34:02.174Z,1016.89
2022-10-02T00:34:33.162Z,1016.92
2022-10-02T00:35:04.163Z,1016.89
2022-10-02T00:35:35.123Z,1016.92
2022-10-02T00:36:06.314Z,1016.94
2022-10-02T00:36:37.166Z,1016.93
2022-10-02T00:37:07.380Z,1016.95
2022-10-02T00:37:38.297Z,1016.97
2022-10-02T00:38:09.222Z,1017.02
2022-10-02T00:38:40.143Z,1017.06
2022-10-02T00:39:11.280Z,1017.10
2022-10-02T00:39:41.766Z,1017.14
2022-10-02T00:40:12.262Z,1017.15
2022-10-02T00:40:43.237Z,1017.15
2022-10-02T00:41:14.160Z,1017.11
2022-10-02T00:41:45.055Z,1017.11
2022-10-02T00:42:16.169Z,1017.09
2022-10-02T00:42:46.681Z,1017.08
2022-10-02T00:43:17.598Z,1017.06
2022-10-02T00:43:48.613Z,1017.02
2022-10-02T00:44:19.115Z,1016.98
2022-10-02T00:44:50.032Z,1017.01
2022-10-02T00:45:21.232Z,1016.93
2022-10-02T00:45:51.856Z,1016.92
2022-10-02T00:46:22.509Z,1016.90
2022-10-02T00:46:52.971Z,1016.87
2022-10-02T00:47:23.959Z,1016.88
2022-10-02T00:47:54.892Z,1016.83
2022-10-02T00:48:26.078Z,1016.84
2022-10-02T00:48:56.541Z,1016.81
2022-10-02T00:49:27.537Z,1016.81
2022-10-02T00:49:58.001Z,1016.84
2022-10-02T00:50:29.012Z,1016.82
2022-10-02T00:50:59.467Z,1016.83
2022-10-02T00:51:30.574Z,1016.87
2022-10-02T00:52:01.060Z,1016.84
2022-10-02T00:52:32.004Z,1016.80
2022-10-02T00:53:02.925Z,1016.79
2022-10-02T00:53:33.852Z,1016.78
2022-10-02T00:54:04.874Z,1016.76
2022-10-02T00:54:36.011Z,1016.75
2022-10-02T00:55:06.499Z,1016.77
2022-10-02T00:55:37.422Z,1016.78
2022-10-02T00:56:08.386Z,1016.80
2022-10-02T00:56:39.430Z,1016.77
2022-10-02T00:57:09.868Z,1016.75
2022-10-02T00:57:40.991Z,1016.72
2022-10-02T00:58:11.507Z,1016.71
2022-10-02T00:58:42.018Z,1016.66
2022-10-02T00:59:12.501Z,1016.66
2022-10-02T00:59:43.452Z,1016.69
2022-10-02T01:00:14.382Z,1016.68
2022-10-02T01:00:45.609Z,1016.67
2022-10-02T01:01:16.330Z,1016.68
2022-10-02T01:01:47.014Z,1016.68
2022-10-02T01:02:17.555Z,1016.67
2022-10-02T01:02:48.089Z,1016.67
2022-10-02T01:03:18.609Z,1016.67
2022-10-02T01:03:49.320Z,1016.70
2022-10-02T01:04:19.830Z,1016.72
2022-10-02T01:04:50.348Z,1016.75
2022-10-02T01:05:20.844Z,1016.73
2022-10-02T01:05:51.363Z,1016.74
2022-10-02T01:06:21.921Z,1016.72
2022-10-02T01:06:52.552Z,1016.73
2022-10-02T01:07:23.061Z,1016.73
2022-10-02T01:07:53.731Z,1016.76
2022-10-02T01:08:24.665Z,1016.79
2022-10-02T01:08:55.673Z,1016.81
2022-10-02T01:09:26.167Z,1016.79
2022-10-02T01:09:57.321Z,1016.77
2022-10-02T01:10:27.812Z,1016.78
2022-10-02T01:10:58.739Z,1016.79
2022-10-02T01:11:29.726Z,1016.81
2022-10-02T01:12:00.729Z,1016.84
2022-10-02T01:12:31.664Z,1016.85
2022-10-02T01:13:02.785Z,1016.84
2022-10-02T01:13:33.299Z,1016.83
2022-10-02T01:14:03.803Z,1016.85
2022-10-02T01:14:34.762Z,1016.87
2022-10-02T01:15:05.790Z,1016.89
2022-10-02T01:15:36.302Z,1016.95
2022-10-02T01:16:07.031Z,1016.98
2022-10-02T01:16:38.124Z,1017.03
2022-10-02T01:17:08.433Z,1017.04
2022-10-02T01:17:39.351Z,1017.07
2022-10-02T01:18:10.269Z,1017.04
2022-10-02T01:18:41.265Z,1017.05
2022-10-02T01:19:12.381Z,1017.03
2022-10-02T01:19:42.888Z,1017.01
2022-10-02T01:20:13.812Z,1017.00
2022-10-02T01:20:44.734Z,1017.01
2022-10-02T01:21:15.649Z,1017.00
2022-10-02T01:21:46.638Z,1016.97
2022-10-02T01:22:17.756Z,1016.93
2022-10-02T01:22:48.247Z,1016.91
2022-10-02T01:23:19.168Z,1016.88
2022-10-02T01:23:50.097Z,1016.86
2022-10-02T01:24:21.025Z,1016.84
2022-10-02T01:24:51.921Z,1016.83
2022-10-02T01:25:23.103Z,1016.80
2022-10-02T01:25:53.595Z,1016.78
2022-10-02T01:26:24.074Z,1016.76
2022-10-02T01:26:55.061Z,1016.75
2022-10-02T01:27:26.054Z,1016.74
2022-10-02T01:27:57.035Z,1016.75
2022-10-02T01:28:27.852Z,1016.78
2022-10-02T01:28:58.408Z,1016.77
2022-10-02T01:29:29.343Z,1016.81
2022-10-02T01:30:00.298Z,1016.83
2022-10-02T01:30:31.278Z,1016.82
2022-10-02T01:31:02.178Z,1016.85
2022-10-02T01:31:33.382Z,1016.84
2022-10-02T01:32:03.942Z,1016.86
2022-10-02T01:32:34.462Z,1016.85
2022-10-02T01:33:05.349Z,1016.87
2022-10-02T01:33:36.338Z,1016.85
2022-10-02T01:34:07.352Z,1016.83
2022-10-02T01:34:38.471Z,1016.80
2022-10-02T01:35:09.011Z,1016.80
2022-10-02T01:35:39.510Z,1016.75
2022-10-02T01:36:10.499Z,1016.71
2022-10-02T01:36:41.442Z,1016.67
2022-10-02T01:37:12.400Z,1016.62
2022-10-02T01:37:43.528Z,1016.62
2022-10-02T01:38:14.023Z,1016.66
2022-10-02T01:38:44.947Z,1016.69
2022-10-02T01:39:15.871Z,1016.74
2022-10-02T01:39:46.792Z,1016.76
2022-10-02T01:40:17.853Z,1016.80
2022-10-02T01:40:48.542Z,1016.81
2022-10-02T01:41:19.042Z,1016.84
2022-10-02T01:41:50.034Z,1016.83
2022-10-02T01:42:20.510Z,1016.80
2022-10-02T01:42:51.426Z,1016.76
2022-10-02T01:43:22.430Z,1016.75
2022-10-02T01:43:53.535Z,1016.72
2022-10-02T01:44:24.026Z,1016.70
2022-10-02T01:44:54.501Z,1016.70
2022-10-02T01:45:25.495Z,1016.71
2022-10-02T01:45:56.058Z,1016.71
2022-10-02T01:46:26.636Z,1016.72
2022-10-02T01:46:57.225Z,1016.77
2022-10-02T01:47:27.735Z,1016.77
2022-10-02T01:47:58.670Z,1016.81
2022-10-02T01:48:29.667Z,1016.86
2022-10-02T01:49:00.564Z,1016.90
2022-10-02T01:49:31.482Z,1016.88
2022-10-02T01:50:02.679Z,1016.89
2022-10-02T01:50:33.164Z,1016.88
2022-10-02T01:51:03.655Z,1016.86
2022-10-02T01:51:34.656Z,1016.88
2022-10-02T01:52:05.562Z,1016.89
2022-10-02T01:52:36.587Z,1016.93
2022-10-02T01:53:07.196Z,1016.98
2022-10-02T01:53:37.692Z,1016.96
2022-10-02T01:54:08.618Z,1016.98
2022-10-02T01:54:39.555Z,1016.98
2022-10-02T01:55:10.494Z,1016.96
2022-10-02T01:55:41.504Z,1016.97
2022-10-02T01:56:12.626Z,1016.96
2022-10-02T01:56:43.127Z,1016.99
2022-10-02T01:57:14.055Z,1016.99
2022-10-02T01:57:45.043Z,1017.00
2022-10-02T01:58:15.977Z,1016.99
2022-10-02T01:58:46.979Z,1016.99
2022-10-02T01:59:18.073Z,1016.99
2022-10-02T01:59:48.560Z,1016.96
2022-10-02T02:00:19.500Z,1016.95
2022-10-02T02:00:50.586Z,1016.95
2022-10-02T02:01:21.100Z,1016.94
2022-10-02T02:01:51.645Z,1016.95
2022-10-02T02:02:22.428Z,1016.97
2022-10-02T02:02:53.008Z,1016.92
2022-10-02T02:03:23.428Z,1016.95
2022-10-02T02:03:54.324Z,1016.91
2022-10-02T02:04:25.331Z,1016.93
2022-10-02T02:04:56.259Z,1016.91
2022-10-02T02:05:27.400Z,1016.92
2022-10-02T02:05:57.893Z,1016.93
2022-10-02T02:06:28.412Z,1016.93
2022-10-02T02:06:58.842Z,1016.95
2022-10-02T02:08:50.836Z,1016.93
2022-10-02T02:09:21.761Z,1016.91
2022-10-02T02:09:52.730Z,1016.89
2022-10-02T02:10:23.661Z,1016.85
2022-10-02T02:10:54.662Z,1016.79
2022-10-02T02:11:25.626Z,1016.76
2022-10-02T02:11:56.750Z,1016.76
2022-10-02T02:12:27.259Z,1016.79
2022-10-02T02:12:58.190Z,1016.83
2022-10-02T02:13:29.176Z,1016.87
2022-10-02T02:14:00.154Z,1016.90
2022-10-02T02:14:31.133Z,1016.90
2022-10-02T02:15:02.255Z,1016.91
2022-10-02T02:15:32.765Z,1016.88
2022-10-02T02:16:03.765Z,1016.89
2022-10-02T02:16:34.621Z,1016.91
2022-10-02T02:17:04.965Z,1016.90
2022-10-02T02:17:35.888Z,1016.89
2022-10-02T02:18:07.078Z,1016.87
2022-10-02T02:18:37.589Z,1016.87
2022-10-02T02:19:08.567Z,1016.87
2022-10-02T02:19:39.504Z,1016.88
2022-10-02T02:20:10.430Z,1016.88
2022-10-02T02:20:41.410Z,1016.87
2022-10-02T02:21:12.593Z,1016.88
2022-10-02T02:21:43.104Z,1016.86
2022-10-02T02:22:13.617Z,1016.85
2022-10-02T02:22:44.590Z,1016.85
2022-10-02T02:23:15.523Z,1016.89
2022-10-02T02:23:46.450Z,1016.91
2022-10-02T02:24:17.615Z,1016.90
2022-10-02T02:24:48.037Z,1016.92
2022-10-02T02:25:18.959Z,1016.94
2022-10-02T02:25:49.858Z,1016.94
2022-10-02T02:26:20.856Z,1016.96
2022-10-02T02:26:51.785Z,1016.97
2022-10-02T02:27:22.971Z,1016.97
2022-10-02T02:27:53.513Z,1016.94
2022-10-02T02:28:24.109Z,1016.98
2022-10-02T02:28:54.687Z,1016.99
2022-10-02T02:29:25.153Z,1016.97
2022-10-02T02:29:56.077Z,1016.94
2022-10-02T02:30:27.155Z,1016.93
2022-10-02T02:30:57.654Z,1016.91
2022-10-02T02:31:28.228Z,1016.92
2022-10-02T02:31:58.701Z,1016.89
2022-10-02T02:32:29.239Z,1016.88
2022-10-02T02:32:59.728Z,1016.85
2022-10-02T02:33:30.838Z,1016.84
2022-10-02T02:34:01.335Z,1016.81
2022-10-02T02:34:32.303Z,1016.82
2022-10-02T02:35:03.305Z,1016.81
2022-10-02T02:35:34.241Z,1016.82
2022-10-02T02:36:05.194Z,1016.82
2022-10-02T02:36:36.649Z,1016.84
2022-10-02T02:37:07.052Z,1016.87
2022-10-02T02:37:37.592Z,1016.91
2022-10-02T02:38:08.039Z,1016.92
2022-10-02T02:38:39.047Z,1016.95
2022-10-02T02:39:09.995Z,1016.93
2022-10-02T02:39:41.163Z,1016.92
2022-10-02T02:40:11.671Z,1016.92
2022-10-02T02:40:42.163Z,1016.89
2022-10-02T02:41:13.066Z,1016.89
2022-10-02T02:41:43.998Z,1016.89
2022-10-02T02:42:17.827Z,1016.88
2022-10-02T02:42:45.680Z,1016.89
2022-10-02T02:43:16.169Z,1016.89
2022-10-02T02:43:47.178Z,1016.88
2022-10-02T02:44:17.692Z,1016.86
2022-10-02T02:44:48.169Z,1016.85
2022-10-02T02:45:19.133Z,1016.83
2022-10-02T02:45:50.382Z,1016.84
2022-10-02T02:46:20.927Z,1016.84
2022-10-02T02:46:51.863Z,1016.83
2022-10-02T02:47:22.785Z,1016.85
2022-10-02T02:47:53.720Z,1016.84
2022-10-02T02:48:24.668Z,1016.82
2022-10-02T02:48:55.796Z,1016.81
2022-10-02T02:49:26.300Z,1016.85
2022-10-02T02:49:57.272Z,1016.86
2022-10-02T02:50:28.230Z,1016.85
2022-10-02T02:50:59.175Z,1016.84
2022-10-02T02:51:30.098Z,1016.85
2022-10-02T02:52:01.215Z,1016.87
2022-10-02T02:52:31.708Z,1016.85
2022-10-02T02:53:02.653Z,1016.85
2022-10-02T02:53:33.566Z,1016.86
2022-10-02T02:54:04.488Z,1016.85
2022-10-02T02:54:35.412Z,1016.86
2022-10-02T02:55:06.555Z,1016.88
2022-10-02T02:55:40.330Z,1016.88
2022-10-02T02:56:08.950Z,1016.86
2022-10-02T02:56:38.692Z,1016.83
2022-10-02T02:57:09.338Z,1016.85
2022-10-02T02:57:40.522Z,1016.87
2022-10-02T02:58:11.045Z,1016.86
2022-10-02T02:58:41.542Z,1016.88
2022-10-02T02:59:12.033Z,1016.87
2022-10-02T02:59:42.962Z,1016.88
2022-10-02T03:00:13.927Z,1016.92
2022-10-02T03:00:45.110Z,1016.91
2022-10-02T03:01:15.780Z,1016.89
2022-10-02T03:01:46.320Z,1016.91
2022-10-02T03:02:17.335Z,1016.92
2022-10-02T03:02:47.826Z,1016.92
2022-10-02T03:03:18.756Z,1016.93
2022-10-02T03:03:49.936Z,1016.93
2022-10-02T03:04:20.502Z,1016.93
2022-10-02T03:04:50.992Z,1016.94
2022-10-02T03:05:21.988Z,1016.94
2022-10-02T03:05:52.511Z,1016.94
2022-10-02T03:06:23.440Z,1016.91
2022-10-02T03:06:54.634Z,1016.95
2022-10-02T03:07:25.137Z,1016.93
2022-10-02T03:07:56.118Z,1016.96
2022-10-02T03:08:27.049Z,1016.96
2022-10-02T03:08:58.000Z,1016.96
2022-10-02T03:09:28.919Z,1016.95
2022-10-02T03:10:00.063Z,1016.96
2022-10-02T03:10:30.553Z,1016.95
2022-10-02T03:11:01.492Z,1016.95
2022-10-02T03:11:32.416Z,1016.95
2022-10-02T03:12:03.415Z,1016.94
2022-10-02T03:12:34.306Z,1016.92
2022-10-02T03:13:05.391Z,1016.93
2022-10-02T03:13:35.902Z,1016.92
2022-10-02T03:14:06.824Z,1016.90
2022-10-02T03:14:37.767Z,1016.89
2022-10-02T03:15:08.678Z,1016.90
2022-10-02T03:15:39.672Z,1016.90
2022-10-02T03:16:10.446Z,1016.90
2022-10-02T03:16:41.033Z,1016.91
2022-10-02T03:17:12.004Z,1016.93
2022-10-02T03:17:42.969Z,1016.94
2022-10-02T03:18:13.967Z,1016.95
2022-10-02T03:18:44.473Z,1016.94
2022-10-02T03:19:15.593Z,1016.93
2022-10-02T03:19:46.105Z,1016.94
2022-10-02T03:20:16.599Z,1016.95
2022-10-02T03:20:47.132Z,1016.94
2022-10-02T03:21:17.557Z,1016.96
2022-10-02T03:21:48.555Z,1016.95
2022-10-02T03:22:19.253Z,1016.93
2022-10-02T03:22:49.766Z,1016.91
2022-10-02T03:23:20.885Z,1016.92
2022-10-02T03:23:51.350Z,1016.90
2022-10-02T03:24:22.274Z,1016.92
2022-10-02T03:24:53.206Z,1016.90
2022-10-02T03:25:24.339Z,1016.93
2022-10-02T03:25:54.845Z,1016.92
2022-10-02T03:26:25.380Z,1016.93
2022-10-02T03:26:55.809Z,1016.93
2022-10-02T03:27:30.214Z,1016.91
2022-10-02T03:27:58.947Z,1016.90
2022-10-02T03:28:53.954Z,1016.93
2022-10-02T03:29:00.392Z,1016.92
2022-10-02T03:29:29.919Z,1016.92
2022-10-02T03:30:00.875Z,1016.90
2022-10-02T03:30:31.776Z,1016.90
2022-10-02T03:31:03.058Z,1016.89
2022-10-02T03:31:33.589Z,1016.88
2022-10-02T03:32:04.142Z,1016.88
2022-10-02T03:32:34.562Z,1016.87
2022-10-02T03:33:05.580Z,1016.86
2022-10-02T03:33:36.520Z,1016.84
2022-10-02T03:34:07.709Z,1016.82
2022-10-02T03:34:38.200Z,1016.78
2022-10-02T03:35:09.113Z,1016.77
2022-10-02T03:35:40.117Z,1016.75
2022-10-02T03:36:11.075Z,1016.78
2022-10-02T03:36:42.017Z,1016.81
2022-10-02T03:37:13.136Z,1016.83
2022-10-02T03:37:43.620Z,1016.85
2022-10-02T03:38:14.521Z,1016.86
2022-10-02T03:38:50.115Z,1016.89
2022-10-02T03:39:25.271Z,1016.92
2022-10-02T03:39:46.922Z,1016.92
2022-10-02T03:40:17.842Z,1016.94
2022-10-02T03:40:48.757Z,1016.93
2022-10-02T03:41:19.752Z,1016.92
2022-10-02T03:41:50.672Z,1016.91
2022-10-02T03:42:21.790Z,1016.88
2022-10-02T03:42:52.297Z,1016.87
2022-10-02T03:43:22.804Z,1016.84
2022-10-02T03:43:53.713Z,1016.84
2022-10-02T03:44:24.698Z,1016.81
2022-10-02T03:44:55.632Z,1016.80
2022-10-02T03:45:49.501Z,1016.81
2022-10-02T03:45:58.370Z,1016.82
2022-10-02T03:46:27.904Z,1016.85
2022-10-02T03:46:58.433Z,1016.86
2022-10-02T03:47:29.369Z,1016.89
2022-10-02T03:48:00.557Z,1016.86
2022-10-02T03:48:31.081Z,1016.88
2022-10-02T03:49:01.505Z,1016.88
2022-10-02T03:49:32.508Z,1016.88
2022-10-02T03:50:03.440Z,1016.84
2022-10-02T03:50:36.586Z,1016.84
2022-10-02T03:51:05.450Z,1016.85
2022-10-02T03:51:35.933Z,1016.82
2022-10-02T03:52:06.835Z,1016.83
2022-10-02T03:52:37.762Z,1016.81
2022-10-02T03:53:08.817Z,1016.79
2022-10-02T03:53:39.241Z,1016.78
2022-10-02T03:54:10.430Z,1016.77
2022-10-02T03:54:40.929Z,1016.78
2022-10-02T03:55:11.935Z,1016.77
2022-10-02T03:55:42.430Z,1016.77
2022-10-02T03:56:13.369Z,1016.76
2022-10-02T03:56:44.336Z,1016.77
2022-10-02T03:57:15.507Z,1016.76
2022-10-02T03:57:45.998Z,1016.76
2022-10-02T03:58:16.958Z,1016.73
2022-10-02T03:58:47.889Z,1016.73
2022-10-02T03:59:18.807Z,1016.75
2022-10-02T03:59:49.760Z,1016.73
2022-10-02T04:00:20.894Z,1016.75
2022-10-02T04:00:51.386Z,1016.76
2022-10-02T04:01:22.355Z,1016.75
2022-10-02T04:01:52.910Z,1016.78
2022-10-02T04:02:23.386Z,1016.79
2022-10-02T04:02:54.310Z,1016.79
2022-10-02T04:03:25.565Z,1016.80
2022-10-02T04:03:56.162Z,1016.82
2022-10-02T04:04:26.709Z,1016.82
2022-10-02T04:04:57.634Z,1016.82
2022-10-02T04:05:28.604Z,1016.81
2022-10-02T04:05:59.522Z,1016.84
2022-10-02T04:06:30.627Z,1016.82
2022-10-02T04:07:01.147Z,1016.85
2022-10-02T04:07:31.562Z,1016.83
2022-10-02T04:08:02.574Z,1016.84
2022-10-02T04:08:33.002Z,1016.84
2022-10-02T04:09:03.973Z,1016.85
2022-10-02T04:09:35.134Z,1016.85
2022-10-02T04:10:05.632Z,1016.85
2022-10-02T04:10:36.617Z,1016.85
2022-10-02T04:11:07.613Z,1016.84
2022-10-02T04:11:38.520Z,1016.82
2022-10-02T04:12:09.489Z,1016.83
2022-10-02T04:12:40.691Z,1016.83
2022-10-02T04:13:11.186Z,1016.83
2022-10-02T04:13:42.100Z,1016.83
2022-10-02T04:14:13.063Z,1016.82
2022-10-02T04:14:43.989Z,1016.84
2022-10-02T04:15:14.902Z,1016.83
2022-10-02T04:15:46.150Z,1016.87
2022-10-02T04:16:16.765Z,1016.87
2022-10-02T04:16:47.226Z,1016.87
2022-10-02T04:17:18.179Z,1016.86
2022-10-02T04:17:49.103Z,1016.84
2022-10-02T04:18:20.088Z,1016.83
2022-10-02T04:18:51.204Z,1016.83
2022-10-02T04:19:21.725Z,1016.81
2022-10-02T04:19:52.139Z,1016.82
2022-10-02T04:20:23.061Z,1016.81
2022-10-02T04:20:54.049Z,1016.82
2022-10-02T04:21:25.014Z,1016.83
2022-10-02T04:21:56.197Z,1016.84
2022-10-02T04:22:26.660Z,1016.84
2022-10-02T04:22:57.658Z,1016.82
2022-10-02T04:23:28.590Z,1016.81
2022-10-02T04:23:59.562Z,1016.81
2022-10-02T04:24:30.539Z,1016.81
2022-10-02T04:25:01.649Z,1016.81
2022-10-02T04:25:32.128Z,1016.81
2022-10-02T04:26:03.090Z,1016.84
2022-10-02T04:26:34.250Z,1016.85
2022-10-02T04:27:04.918Z,1016.86
2022-10-02T04:27:35.866Z,1016.86
2022-10-02T04:28:07.028Z,1016.87
2022-10-02T04:28:37.576Z,1016.87
2022-10-02T04:29:08.521Z,1016.86
2022-10-02T04:29:39.509Z,1016.88
2022-10-02T04:30:10.476Z,1016.88
2022-10-02T04:30:41.456Z,1016.88
2022-10-02T04:31:12.677Z,1016.88
2022-10-02T04:31:43.366Z,1016.90
2022-10-02T04:32:13.872Z,1016.88
2022-10-02T04:32:44.836Z,1016.91
2022-10-02T04:33:15.812Z,1016.92
2022-10-02T04:33:46.805Z,1016.92
2022-10-02T04:34:17.976Z,1016.95
2022-10-02T04:34:48.487Z,1016.95
2022-10-02T04:35:18.975Z,1016.95
2022-10-02T04:35:49.949Z,1016.95
2022-10-02T04:36:20.931Z,1016.95
2022-10-02T04:36:51.850Z,1016.89
2022-10-02T04:37:23.022Z,1016.86
2022-10-02T04:37:53.491Z,1016.86
2022-10-02T04:38:24.416Z,1016.88
2022-10-02T04:38:55.645Z,1016.89
2022-10-02T04:39:26.063Z,1016.89
2022-10-02T04:39:57.027Z,1016.92
2022-10-02T04:40:28.140Z,1016.95
2022-10-02T04:40:58.648Z,1016.95
2022-10-02T04:41:29.566Z,1016.94
2022-10-02T04:42:00.533Z,1016.92
2022-10-02T04:42:31.450Z,1016.95
2022-10-02T04:43:02.456Z,1016.96
2022-10-02T04:43:33.160Z,1016.95
2022-10-02T04:44:03.648Z,1016.93
2022-10-02T04:44:34.574Z,1016.90
2022-10-02T04:45:05.561Z,1016.88
2022-10-02T04:45:36.663Z,1016.87
2022-10-02T04:46:07.257Z,1016.87
2022-10-02T04:46:38.442Z,1016.85
2022-10-02T04:47:08.626Z,1016.85
2022-10-02T04:47:39.611Z,1016.88
2022-10-02T04:48:10.622Z,1016.85
2022-10-02T04:48:41.119Z,1016.84
2022-10-02T04:49:12.094Z,1016.84
2022-10-02T04:49:43.287Z,1016.84
2022-10-02T04:50:13.794Z,1016.83
2022-10-02T04:50:44.270Z,1016.86
2022-10-02T04:51:15.178Z,1016.86
2022-10-02T04:51:46.167Z,1016.87
2022-10-02T04:52:17.081Z,1016.88
2022-10-02T04:52:48.192Z,1016.90
2022-10-02T04:53:18.669Z,1016.91
2022-10-02T04:53:49.595Z,1016.92
2022-10-02T04:54:20.511Z,1016.93
2022-10-02T04:54:51.439Z,1016.94
2022-10-02T04:55:22.348Z,1016.95
2022-10-02T04:55:53.455Z,1016.96
2022-10-02T04:56:23.969Z,1016.97
2022-10-02T04:56:54.938Z,1016.96
2022-10-02T04:57:25.926Z,1016.96
2022-10-02T04:57:56.413Z,1016.98
2022-10-02T04:58:27.368Z,1016.97
2022-10-02T04:58:58.477Z,1016.96
2022-10-02T04:59:28.962Z,1016.98
2022-10-02T04:59:59.954Z,1016.99
2022-10-02T05:00:31.050Z,1017.02
2022-10-02T05:01:01.573Z,1017.02
2022-10-02T05:01:32.094Z,1017.02
2022-10-02T05:02:03.271Z,1017.02
2022-10-02T05:02:33.805Z,1017.04
2022-10-02T05:03:04.723Z,1017.04
2022-10-02T05:03:35.743Z,1017.07
2022-10-02T05:04:06.231Z,1017.08
2022-10-02T05:04:37.151Z,1017.08
2022-10-02T05:05:08.314Z,1017.11
2022-10-02T05:05:38.825Z,1017.12
2022-10-02T05:06:09.307Z,1017.13
2022-10-02T05:06:40.300Z,1017.13
2022-10-02T05:07:11.272Z,1017.12
2022-10-02T05:07:42.195Z,1017.10
2022-10-02T05:08:13.316Z,1017.07
2022-10-02T05:08:43.829Z,1017.06
2022-10-02T05:09:14.309Z,1017.05
2022-10-02T05:09:45.225Z,1017.04
2022-10-02T05:10:16.148Z,1017.08
2022-10-02T05:10:47.141Z,1017.10
2022-10-02T05:11:18.267Z,1017.10
2022-10-02T05:11:48.766Z,1017.12
2022-10-02T05:12:19.288Z,1017.16
2022-10-02T05:12:50.276Z,1017.16
2022-10-02T05:13:21.221Z,1017.19
2022-10-02T05:13:52.250Z,1017.21
2022-10-02T05:14:22.870Z,1017.22
2022-10-02T05:14:53.376Z,1017.20
2022-10-02T05:15:24.283Z,1017.18
2022-10-02T05:15:55.291Z,1017.16
2022-10-02T05:16:25.971Z,1017.16
2022-10-02T05:16:56.469Z,1017.14
2022-10-02T05:17:27.625Z,1017.11
2022-10-02T05:17:58.119Z,1017.09
2022-10-02T05:18:29.120Z,1017.07
2022-10-02T05:18:59.609Z,1017.09
2022-10-02T05:19:30.535Z,1017.09
2022-10-02T05:20:01.457Z,1017.09
2022-10-02T05:20:32.626Z,1017.09
2022-10-02T05:21:03.132Z,1017.09
2022-10-02T05:21:34.059Z,1017.09
2022-10-02T05:22:05.007Z,1017.06
2022-10-02T05:22:35.949Z,1017.06
2022-10-02T05:23:06.867Z,1017.02
2022-10-02T05:23:38.120Z,1016.99
2022-10-02T05:24:08.551Z,1016.97
2022-10-02T05:24:39.472Z,1016.95
2022-10-02T05:25:10.423Z,1016.93
2022-10-02T05:25:41.301Z,1016.92
2022-10-02T05:26:14.460Z,1016.91
2022-10-02T05:26:43.288Z,1016.88
2022-10-02T05:27:13.820Z,1016.89
2022-10-02T05:27:44.337Z,1016.87
2022-10-02T05:28:14.915Z,1016.85
2022-10-02T05:28:45.371Z,1016.87
2022-10-02T05:29:16.333Z,1016.87
2022-10-02T05:29:47.438Z,1016.85
2022-10-02T05:30:17.932Z,1016.88
2022-10-02T05:30:48.436Z,1016.86
2022-10-02T05:31:19.042Z,1016.87
2022-10-02T05:31:49.647Z,1016.87
2022-10-02T05:32:20.106Z,1016.90
2022-10-02T05:32:51.290Z,1016.93
2022-10-02T05:33:21.794Z,1016.97
2022-10-02T05:33:52.728Z,1017.00
2022-10-02T05:34:23.767Z,1017.00
2022-10-02T05:34:54.166Z,1017.01
2022-10-02T05:35:25.126Z,1017.00
2022-10-02T05:35:56.374Z,1016.96
2022-10-02T05:36:26.881Z,1016.96
2022-10-02T05:36:57.389Z,1016.93
2022-10-02T05:37:27.888Z,1016.93
2022-10-02T05:37:58.811Z,1016.94
2022-10-02T05:38:29.754Z,1016.95
2022-10-02T05:39:00.831Z,1016.96
2022-10-02T05:39:31.252Z,1016.99
2022-10-02T05:40:02.137Z,1017.00
2022-10-02T05:40:33.061Z,1017.00
2022-10-02T05:41:03.939Z,1017.01
2022-10-02T05:41:34.816Z,1017.00
2022-10-02T05:42:05.935Z,1017.00
2022-10-02T05:42:40.016Z,1017.02
2022-10-02T05:43:08.417Z,1017.03
2022-10-02T05:43:37.807Z,1017.02
2022-10-02T05:44:08.678Z,1017.03
2022-10-02T05:44:39.777Z,1017.05
2022-10-02T05:45:10.165Z,1017.03
2022-10-02T05:45:41.031Z,1017.05
2022-10-02T05:46:11.901Z,1017.05
2022-10-02T05:46:42.793Z,1017.05
2022-10-02T05:47:13.685Z,1017.04
2022-10-02T05:47:44.766Z,1017.06
2022-10-02T05:48:15.236Z,1017.05
2022-10-02T05:48:46.106Z,1017.04
2022-10-02T05:49:17.050Z,1017.04
2022-10-02T05:49:47.946Z,1017.05
2022-10-02T05:50:18.806Z,1017.06
2022-10-02T05:50:49.951Z,1017.05
2022-10-02T05:51:20.404Z,1017.04
2022-10-02T05:51:51.307Z,1017.03
2022-10-02T05:52:22.150Z,1017.01
2022-10-02T05:52:53.111Z,1017.00
2022-10-02T05:53:24.048Z,1017.01
2022-10-02T05:53:55.113Z,1017.01
2022-10-02T05:54:25.571Z,1017.00
2022-10-02T05:54:56.491Z,1017.02
2022-10-02T05:55:27.422Z,1017.01
2022-10-02T05:55:58.368Z,1017.04
2022-10-02T05:56:29.309Z,1017.07
2022-10-02T05:57:00.433Z,1017.07
2022-10-02T05:57:30.867Z,1017.05
2022-10-02T05:58:01.813Z,1017.05
2022-10-02T05:58:32.745Z,1017.06
2022-10-02T05:59:03.692Z,1017.08
2022-10-02T05:59:34.576Z,1017.11
2022-10-02T06:00:05.716Z,1017.11
2022-10-02T06:00:36.082Z,1017.12
2022-10-02T06:01:07.003Z,1017.11
2022-10-02T06:01:37.521Z,1017.12
2022-10-02T06:02:08.456Z,1017.10
2022-10-02T06:02:39.728Z,1017.10
2022-10-02T06:03:10.437Z,1017.05
2022-10-02T06:03:40.894Z,1017.02
2022-10-02T06:04:11.837Z,1017.00
2022-10-02T06:04:42.700Z,1016.99
2022-10-02T06:05:13.614Z,1016.99
2022-10-02T06:05:44.552Z,1017.01
2022-10-02T06:06:15.617Z,1016.99
2022-10-02T06:06:46.067Z,1017.03
2022-10-02T06:07:17.032Z,1017.04
2022-10-02T06:07:47.940Z,1017.08
2022-10-02T06:08:18.921Z,1017.10
2022-10-02T06:08:49.850Z,1017.13
2022-10-02T06:09:20.995Z,1017.12
2022-10-02T06:09:51.485Z,1017.09
2022-10-02T06:10:22.396Z,1017.09
2022-10-02T06:10:53.339Z,1017.08
2022-10-02T06:11:24.268Z,1017.02
2022-10-02T06:11:55.141Z,1017.01
2022-10-02T06:12:26.212Z,1016.98
2022-10-02T06:12:56.657Z,1016.98
2022-10-02T06:13:27.523Z,1016.93
2022-10-02T06:13:58.400Z,1016.95